Tor Futura — OZZE2 — position and weather

sailwx.info

Track history (hours):
 
Tides and Currents Weather Stations Pressure Air Temp Water Temp Dewpoint Dewpoint Depression Visibility Wind Speed Wind Dir Waves Ship Positions

Tor Futura

Last reported at 2015-May-22 19:16 UTC. Time now 2015-May-23 16:25 UTC.
Position N 38°35' E 008°41'.

Length 183.1 m; beam 25.2 m; draft 7.8 m.

Type: Cargo ship. MMSI: 219927000.

Date/timePositionNaut miles runAvg speedWind from/ knotsBaromVisibWave heightAir tempDewpointWater temp
2015-May-22 19:16N 38°35' E 008°41'3114.7
2015-May-22 17:10N 38°56' E 008°12'1014.4
2015-May-22 16:28N 39°05' E 008°07'28414.3
2015-May-21 20:33N 43°17' E 005°11'8 8.1
2015-May-21 19:32N 43°19' E 005°22'0 0.0
2015-May-21 18:32N 43°19' E 005°22'0 0.0
2015-May-21 17:29N 43°19' E 005°22'0 0.0
2015-May-21 16:32N 43°19' E 005°22'0 0.0
2015-May-21 15:32N 43°19' E 005°22'0 0.0
2015-May-21 14:26N 43°19' E 005°22'0 0.0
2015-May-21 13:29N 43°19' E 005°22'0 0.0
2015-May-21 12:32N 43°19' E 005°22'0 0.0
2015-May-21 11:32N 43°19' E 005°22'0 0.0
2015-May-21 10:32N 43°19' E 005°22'0 0.0
2015-May-21 09:23N 43°19' E 005°22'0 0.0
2015-May-21 08:32N 43°19' E 005°22'0 0.0
2015-May-21 07:32N 43°19' E 005°22'0 0.0
2015-May-21 06:23N 43°19' E 005°22'2 2.5
2015-May-21 05:33N 43°21' E 005°20'1111.2
2015-May-21 04:33N 43°11' E 005°11'31214.2
2015-May-20 06:33N 38°41' E 008°37'1717.0
2015-May-20 05:33N 38°30' E 008°54'1717.0
2015-May-20 04:32N 38°20' E 009°12'1717.5
2015-May-20 03:33N 38°10' E 009°30'1818.0
2015-May-20 02:32N 37°58' E 009°48'1917.9
2015-May-20 01:28N 37°46' E 010°07'1617.3
2015-May-20 00:33N 37°36' E 010°21'  
2015-May-17 19:12N 38°30' E 008°48'913.7
2015-May-17 18:33N 38°37' E 008°40'2913.7
2015-May-17 16:25N 38°56' E 008°12'29013.9
2015-May-16 19:32N 43°11' E 005°10'1212.2
2015-May-16 18:33N 43°21' E 005°19'3 2.4
2015-May-16 17:30N 43°19' E 005°22'0 0.0
2015-May-16 16:30N 43°19' E 005°22'0 0.0
2015-May-16 15:30N 43°19' E 005°22'0 0.0
2015-May-16 14:27N 43°19' E 005°22'0 0.0
2015-May-16 13:30N 43°19' E 005°22'0 0.0
2015-May-16 12:33N 43°19' E 005°22'0 0.0
2015-May-16 11:33N 43°19' E 005°22'0 0.0
2015-May-16 10:30N 43°19' E 005°22'0 0.0
2015-May-16 09:30N 43°19' E 005°22'0 0.1
2015-May-16 08:33N 43°19' E 005°21'8 8.3
2015-May-16 07:33N 43°16' E 005°11'33813.0
2015-May-15 05:33N 39°04' E 010°11'1717.0
2015-May-15 04:33N 38°47' E 010°13'1717.6
2015-May-15 03:34N 38°30' E 010°16'1817.8
2015-May-15 02:33N 38°12' E 010°18'1917.7
2015-May-15 01:28N 37°53' E 010°22'49 1.7
2015-May-13 21:33N 37°04' E 010°25'2017.4
2015-May-13 20:23N 37°24' E 010°23'4213.9
2015-May-13 17:21N 37°50' E 009°40'1417.9
2015-May-13 16:33N 37°59' E 009°27'1817.7
2015-May-13 15:33N 38°12' E 009°11'1817.9
2015-May-13 14:33N 38°25' E 008°55'2317.9
2015-May-13 13:14N 38°41' E 008°33'8618.3
2015-May-13 08:33N 39°54' E 007°36'1616.4
2015-May-13 07:33N 40°09' E 007°26'13717.0
2015-May-12 23:28N 42°09' E 005°56'1516.4
2015-May-12 22:33N 42°21' E 005°46'2316.7
2015-May-12 21:12N 42°41' E 005°31'  
Track history (hours):
 
Tides and Currents Weather Stations Pressure Air Temp Water Temp Dewpoint Dewpoint Depression Visibility Wind Speed Wind Dir Waves Ship Positions

Tor Futura

Last reported at 2015-May-22 19:16 UTC. Time now 2015-May-23 16:25 UTC.
Position N 38°35' E 008°41'.

Length 183.1 m; beam 25.2 m; draft 7.8 m.

Type: Cargo ship. MMSI: 219927000.

Date/timePositionNaut miles runAvg speedWind from/ knotsBaromVisibWave heightAir tempDewpointWater temp
2015-May-22 19:16N 38°35' E 008°41'3114.7
2015-May-22 17:10N 38°56' E 008°12'1014.4
2015-May-22 16:28N 39°05' E 008°07'28414.3
2015-May-21 20:33N 43°17' E 005°11'8 8.1
2015-May-21 19:32N 43°19' E 005°22'0 0.0
2015-May-21 18:32N 43°19' E 005°22'0 0.0
2015-May-21 17:29N 43°19' E 005°22'0 0.0
2015-May-21 16:32N 43°19' E 005°22'0 0.0
2015-May-21 15:32N 43°19' E 005°22'0 0.0
2015-May-21 14:26N 43°19' E 005°22'0 0.0
2015-May-21 13:29N 43°19' E 005°22'0 0.0
2015-May-21 12:32N 43°19' E 005°22'0 0.0
2015-May-21 11:32N 43°19' E 005°22'0 0.0
2015-May-21 10:32N 43°19' E 005°22'0 0.0
2015-May-21 09:23N 43°19' E 005°22'0 0.0
2015-May-21 08:32N 43°19' E 005°22'0 0.0
2015-May-21 07:32N 43°19' E 005°22'0 0.0
2015-May-21 06:23N 43°19' E 005°22'2 2.5
2015-May-21 05:33N 43°21' E 005°20'1111.2
2015-May-21 04:33N 43°11' E 005°11'31214.2
2015-May-20 06:33N 38°41' E 008°37'1717.0
2015-May-20 05:33N 38°30' E 008°54'1717.0
2015-May-20 04:32N 38°20' E 009°12'1717.5
2015-May-20 03:33N 38°10' E 009°30'1818.0
2015-May-20 02:32N 37°58' E 009°48'1917.9
2015-May-20 01:28N 37°46' E 010°07'1617.3
2015-May-20 00:33N 37°36' E 010°21'  
2015-May-17 19:12N 38°30' E 008°48'913.7
2015-May-17 18:33N 38°37' E 008°40'2913.7
2015-May-17 16:25N 38°56' E 008°12'29013.9
2015-May-16 19:32N 43°11' E 005°10'1212.2
2015-May-16 18:33N 43°21' E 005°19'3 2.4
2015-May-16 17:30N 43°19' E 005°22'0 0.0
2015-May-16 16:30N 43°19' E 005°22'0 0.0
2015-May-16 15:30N 43°19' E 005°22'0 0.0
2015-May-16 14:27N 43°19' E 005°22'0 0.0
2015-May-16 13:30N 43°19' E 005°22'0 0.0
2015-May-16 12:33N 43°19' E 005°22'0 0.0
2015-May-16 11:33N 43°19' E 005°22'0 0.0
2015-May-16 10:30N 43°19' E 005°22'0 0.0
2015-May-16 09:30N 43°19' E 005°22'0 0.1
2015-May-16 08:33N 43°19' E 005°21'8 8.3
2015-May-16 07:33N 43°16' E 005°11'33813.0
2015-May-15 05:33N 39°04' E 010°11'1717.0
2015-May-15 04:33N 38°47' E 010°13'1717.6
2015-May-15 03:34N 38°30' E 010°16'1817.8
2015-May-15 02:33N 38°12' E 010°18'1917.7
2015-May-15 01:28N 37°53' E 010°22'49 1.7
2015-May-13 21:33N 37°04' E 010°25'2017.4
2015-May-13 20:23N 37°24' E 010°23'4213.9
2015-May-13 17:21N 37°50' E 009°40'1417.9
2015-May-13 16:33N 37°59' E 009°27'1817.7
2015-May-13 15:33N 38°12' E 009°11'1817.9
2015-May-13 14:33N 38°25' E 008°55'2317.9
2015-May-13 13:14N 38°41' E 008°33'8618.3
2015-May-13 08:33N 39°54' E 007°36'1616.4
2015-May-13 07:33N 40°09' E 007°26'13717.0
2015-May-12 23:28N 42°09' E 005°56'1516.4
2015-May-12 22:33N 42°21' E 005°46'2316.7
2015-May-12 21:12N 42°41' E 005°31'  

Dump ship's entire track history